Moon Step — V3VU4 — position and weather

sailwx.info

Track history (hours):
 
Tides and Currents Weather Stations Pressure Air Temp Water Temp Dewpoint Dewpoint Depression Visibility Wind Speed Wind Dir Waves Ship Positions

Moon Step

Last reported at 2017-Sep-04 15:57 UTC. Time now 2017-Sep-25 06:28 UTC.
Position N 46°20' E 030°38'.
Warning: this ship's position is 20 days out of date.

Length 101 m; draft 3.9 m.

Type: Ship. MMSI: 312008000.

Date/timePositionNaut miles runAvg speedWind from/ knotsBaromVisibWave heightAir tempDewpointWater temp
2017-Sep-04 15:57N 46°20' E 030°38'1 2.8
2017-Sep-04 15:26N 46°20' E 030°40'3 7.2
2017-Sep-04 14:59N 46°19' E 030°44'3 5.7
2017-Sep-04 14:30N 46°16' E 030°46'138 9.1
2017-Sep-03 23:24N 44°13' E 029°18'4 9.2
2017-Sep-03 23:00N 44°11' E 029°14'5 9.1
2017-Sep-03 22:29N 44°09' E 029°08'4 9.0
2017-Sep-03 21:59N 44°07' E 029°02'4 9.1
2017-Sep-03 21:30N 44°06' E 028°56'5 9.3
2017-Sep-03 21:00N 44°05' E 028°50'5 9.5
2017-Sep-03 20:30N 44°04' E 028°43'3 6.5
2017-Sep-03 20:00N 44°06' E 028°40'2 3.5
2017-Sep-03 19:30N 44°06' E 028°38'0 0.1
2017-Sep-03 18:56N 44°06' E 028°38'0 0.0
2017-Sep-03 18:26N 44°06' E 028°38'0 0.0
2017-Sep-03 17:59N 44°06' E 028°38'0 0.0
2017-Sep-03 17:29N 44°06' E 028°38'0 0.8
2017-Sep-03 17:00N 44°06' E 028°37'0 0.4
2017-Sep-03 16:30N 44°06' E 028°37'1 2.2
2017-Sep-03 16:00N 44°06' E 028°35'1 1.9
2017-Sep-03 15:30N 44°06' E 028°34'2 3.6
2017-Sep-03 15:00N 44°06' E 028°32'6 5.1
2017-Sep-03 13:45N 44°10' E 028°25'2 6.4
2017-Sep-03 13:30N 44°11' E 028°24'3 6.4
2017-Sep-03 13:00N 44°14' E 028°22'3 5.4
2017-Sep-03 12:30N 44°15' E 028°18'0 0.6
2017-Sep-03 12:00N 44°15' E 028°18'0 0.0
2017-Sep-03 11:30N 44°15' E 028°18'0 0.0
2017-Sep-03 10:51N 44°15' E 028°18'  
2017-Sep-01 01:31N 44°15' E 028°18'0 0.0
2017-Aug-31 01:21N 44°15' E 028°18'0 0.0
2017-Aug-31 00:52N 44°15' E 028°18'0 0.0
2017-Aug-31 00:25N 44°15' E 028°18'0 0.0
2017-Aug-30 23:55N 44°15' E 028°18'0 0.0
2017-Aug-30 23:28N 44°15' E 028°18'0 0.0
2017-Aug-30 21:16N 44°15' E 028°18'0 0.0
2017-Aug-30 20:58N 44°15' E 028°18'  
Track history (hours):
 
Tides and Currents Weather Stations Pressure Air Temp Water Temp Dewpoint Dewpoint Depression Visibility Wind Speed Wind Dir Waves Ship Positions

Moon Step

Last reported at 2017-Sep-04 15:57 UTC. Time now 2017-Sep-25 06:28 UTC.
Position N 46°20' E 030°38'.
Warning: this ship's position is 20 days out of date.

Length 101 m; draft 3.9 m.

Type: Ship. MMSI: 312008000.

Date/timePositionNaut miles runAvg speedWind from/ knotsBaromVisibWave heightAir tempDewpointWater temp
2017-Sep-04 15:57N 46°20' E 030°38'1 2.8
2017-Sep-04 15:26N 46°20' E 030°40'3 7.2
2017-Sep-04 14:59N 46°19' E 030°44'3 5.7
2017-Sep-04 14:30N 46°16' E 030°46'138 9.1
2017-Sep-03 23:24N 44°13' E 029°18'4 9.2
2017-Sep-03 23:00N 44°11' E 029°14'5 9.1
2017-Sep-03 22:29N 44°09' E 029°08'4 9.0
2017-Sep-03 21:59N 44°07' E 029°02'4 9.1
2017-Sep-03 21:30N 44°06' E 028°56'5 9.3
2017-Sep-03 21:00N 44°05' E 028°50'5 9.5
2017-Sep-03 20:30N 44°04' E 028°43'3 6.5
2017-Sep-03 20:00N 44°06' E 028°40'2 3.5
2017-Sep-03 19:30N 44°06' E 028°38'0 0.1
2017-Sep-03 18:56N 44°06' E 028°38'0 0.0
2017-Sep-03 18:26N 44°06' E 028°38'0 0.0
2017-Sep-03 17:59N 44°06' E 028°38'0 0.0
2017-Sep-03 17:29N 44°06' E 028°38'0 0.8
2017-Sep-03 17:00N 44°06' E 028°37'0 0.4
2017-Sep-03 16:30N 44°06' E 028°37'1 2.2
2017-Sep-03 16:00N 44°06' E 028°35'1 1.9
2017-Sep-03 15:30N 44°06' E 028°34'2 3.6
2017-Sep-03 15:00N 44°06' E 028°32'6 5.1
2017-Sep-03 13:45N 44°10' E 028°25'2 6.4
2017-Sep-03 13:30N 44°11' E 028°24'3 6.4
2017-Sep-03 13:00N 44°14' E 028°22'3 5.4
2017-Sep-03 12:30N 44°15' E 028°18'0 0.6
2017-Sep-03 12:00N 44°15' E 028°18'0 0.0
2017-Sep-03 11:30N 44°15' E 028°18'0 0.0
2017-Sep-03 10:51N 44°15' E 028°18'  
2017-Sep-01 01:31N 44°15' E 028°18'0 0.0
2017-Aug-31 01:21N 44°15' E 028°18'0 0.0
2017-Aug-31 00:52N 44°15' E 028°18'0 0.0
2017-Aug-31 00:25N 44°15' E 028°18'0 0.0
2017-Aug-30 23:55N 44°15' E 028°18'0 0.0
2017-Aug-30 23:28N 44°15' E 028°18'0 0.0
2017-Aug-30 21:16N 44°15' E 028°18'0 0.0
2017-Aug-30 20:58N 44°15' E 028°18'  

Dump ship's entire track history